Manama, Bahrain

4:45 PM AST on February 09, 2016 (GMT +0300)
Bahrain International | | Change Station
CLOSE
Current Station
Airport
Location: Manama,
Elevation: 7 ft
Nearby Weather Stations

Elev 7 ft 26.27 °N, 50.63 °E | Updated 45 minutes ago

Clear
Clear
66 °F
Feels Like 66 °F
N
23
Wind Variable Wind from NW

Today
High -- | Low -- °F
--% Chance of Precip.
Yesterday
High -- | Low -- °F
Precip. -- in
Pressure 30.12 in
Visibility -9999.0 miles
Clouds
Dew Point 43 °F
Humidity 43%
Rainfall 0.00 in
Snow Depth Not available.
6:17 AM 5:25 PM
New Moon, 1% visible
METAR OBBI 091300Z 32020KT CAVOK 19/06 Q1020 NOSIG
Pressure 30.12 in
Visibility -9999.0 miles
Clouds
Dew Point 43 °F
Humidity 43%
Rainfall 0.00 in
Snow Depth Not available.
6:17 AM 5:25 PM
New Moon, 1% visible
METAR OBBI 091300Z 32020KT CAVOK 19/06 Q1020 NOSIG

10-Day Weather Forecast

No radar image for this location.
×

Almanac

Astronomy

Feb. 09, 2016 Rise Set
Actual Time
Civil Twilight
Nautical Twilight
Astronomical Twilight
Moon
Length of Visible Light
Length of Day
Tomorrow will be .
, % of the Moon is Illuminated

Today's Extremes

Country Highs Country Lows

Community

WunderPhotos

Upload Photos

1,891,591 photos uploaded!

WunderBlog® & News

Nearby

Air Quality

  Air Quality AQ Index Pollutant
Not available.

Snow Depth

Station Depth Elevation

Earthquake Activity

City Distance Mag. Time & Date
Minimum magnitude displayed is 2.5.

Coastal Water Temperatures

Place Temperature

Stations

Nearby Weather Stations

Station Location Temp. Windchill Dew Point Humidity Wind Precip. Elev Updated Type